createdAt,value
2018-07-01T00:00:21.385Z,61.90
2018-07-01T00:02:49.821Z,63.30
2018-07-01T00:05:18.247Z,62.00
2018-07-01T00:07:46.717Z,62.30
2018-07-01T00:10:15.154Z,63.40
2018-07-01T00:12:43.552Z,64.10
2018-07-01T00:15:11.972Z,62.20
2018-07-01T00:17:40.474Z,62.40
2018-07-01T00:20:09.895Z,62.60
2018-07-01T00:22:38.683Z,62.50
2018-07-01T00:25:07.776Z,65.50
2018-07-01T00:27:36.221Z,62.80
2018-07-01T00:30:06.055Z,62.90
2018-07-01T00:32:34.485Z,63.20
2018-07-01T00:35:02.897Z,63.50
2018-07-01T00:37:31.339Z,63.50
2018-07-01T00:39:59.776Z,63.70
2018-07-01T00:42:28.408Z,64.10
2018-07-01T00:44:56.872Z,63.90
2018-07-01T00:47:25.300Z,64.00
2018-07-01T00:49:53.712Z,64.00
2018-07-01T00:52:22.252Z,65.20
2018-07-01T00:54:50.645Z,63.90
2018-07-01T00:57:19.208Z,65.00
2018-07-01T00:59:47.628Z,64.70
2018-07-01T01:02:16.092Z,64.70
2018-07-01T01:04:44.596Z,65.80
2018-07-01T01:07:13.054Z,65.00
2018-07-01T01:09:41.553Z,64.60
2018-07-01T01:12:10.071Z,67.10
2018-07-01T01:14:38.465Z,67.50
2018-07-01T01:17:06.877Z,66.00
2018-07-01T01:19:35.276Z,65.60
2018-07-01T01:22:03.694Z,65.40
2018-07-01T01:24:32.118Z,65.90
2018-07-01T01:27:00.567Z,65.80
2018-07-01T01:29:29.041Z,65.90
2018-07-01T01:31:57.495Z,66.10
2018-07-01T01:34:25.976Z,66.70
2018-07-01T01:36:54.495Z,66.60
2018-07-01T01:39:26.144Z,66.90
2018-07-01T01:42:01.103Z,67.40
2018-07-01T01:44:36.554Z,67.70
2018-07-01T01:47:17.241Z,67.90
2018-07-01T01:49:51.836Z,67.50
2018-07-01T01:52:24.446Z,67.60
2018-07-01T01:56:01.056Z,69.00
2018-07-01T01:58:36.619Z,68.00
2018-07-01T02:01:11.208Z,68.40
2018-07-01T02:03:45.175Z,70.20
2018-07-01T02:06:17.141Z,68.50
2018-07-01T02:08:56.889Z,68.40
2018-07-01T02:11:26.033Z,69.70
2018-07-01T02:13:58.132Z,70.70
2018-07-01T02:16:37.197Z,72.10
2018-07-01T02:19:05.652Z,70.70
2018-07-01T02:21:34.165Z,70.90
2018-07-01T02:24:06.905Z,71.90
2018-07-01T02:26:35.348Z,71.10
2018-07-01T02:29:03.875Z,71.20
2018-07-01T02:31:32.301Z,72.90
2018-07-01T02:34:00.749Z,75.00
2018-07-01T02:36:29.190Z,72.30
2018-07-01T02:38:57.671Z,73.40
2018-07-01T02:41:26.125Z,73.50
2018-07-01T02:43:54.566Z,74.00
2018-07-01T02:46:22.980Z,75.60
2018-07-01T02:48:51.368Z,73.10
2018-07-01T02:51:19.852Z,76.10
2018-07-01T02:53:48.268Z,74.00
2018-07-01T02:56:16.657Z,74.30
2018-07-01T03:01:13.128Z,81.40
2018-07-01T03:03:41.592Z,78.70
2018-07-01T03:08:38.152Z,80.20
2018-07-01T03:11:06.760Z,77.10
2018-07-01T03:13:35.270Z,83.00
2018-07-01T03:16:03.815Z,76.40
2018-07-01T03:18:32.321Z,80.60
2018-07-01T03:21:01.026Z,80.30
2018-07-01T03:23:29.444Z,77.10
2018-07-01T03:25:57.863Z,76.10
2018-07-01T03:28:26.292Z,77.70
2018-07-01T03:30:54.712Z,79.70
2018-07-01T03:33:23.104Z,78.10
2018-07-01T03:35:51.466Z,77.30
2018-07-01T03:38:19.845Z,76.70
2018-07-01T03:40:48.264Z,76.10
2018-07-01T03:43:16.651Z,85.80
2018-07-01T03:45:45.078Z,77.20
2018-07-01T03:48:13.560Z,78.00
2018-07-01T03:50:42.023Z,79.00
2018-07-01T03:53:10.405Z,79.30
2018-07-01T03:55:38.889Z,78.50
2018-07-01T03:58:07.301Z,82.50
2018-07-01T04:00:35.758Z,83.10
2018-07-01T04:03:04.185Z,79.40
2018-07-01T04:05:32.671Z,77.60
2018-07-01T04:08:01.055Z,77.30
2018-07-01T04:10:29.487Z,77.00
2018-07-01T04:12:57.965Z,78.40
2018-07-01T04:15:26.348Z,76.80
2018-07-01T04:17:54.751Z,77.60
2018-07-01T04:20:23.140Z,78.90
2018-07-01T04:22:51.532Z,77.80
2018-07-01T04:25:20.073Z,77.10
2018-07-01T04:27:48.528Z,76.80
2018-07-01T04:30:16.972Z,81.50
2018-07-01T04:32:45.469Z,77.80
2018-07-01T04:35:13.881Z,77.50
2018-07-01T04:37:42.320Z,77.70
2018-07-01T04:40:10.737Z,77.80
2018-07-01T04:42:46.046Z,79.70
2018-07-01T04:45:14.486Z,78.10
2018-07-01T04:47:42.877Z,79.60
2018-07-01T04:50:11.280Z,79.60
2018-07-01T04:52:39.726Z,78.80
2018-07-01T04:55:08.220Z,78.00
2018-07-01T04:57:36.673Z,78.80
2018-07-01T05:00:05.200Z,78.40
2018-07-01T05:02:33.777Z,78.10
2018-07-01T05:05:02.139Z,79.60
2018-07-01T05:07:30.826Z,76.40
2018-07-01T05:09:59.234Z,77.10
2018-07-01T05:12:27.647Z,77.00
2018-07-01T05:14:56.061Z,76.60
2018-07-01T05:17:24.525Z,77.20
2018-07-01T05:19:52.988Z,74.60
2018-07-01T05:22:21.398Z,71.40
2018-07-01T05:24:49.824Z,68.80
2018-07-01T05:27:18.258Z,68.20
2018-07-01T05:29:46.672Z,66.40
2018-07-01T05:32:15.065Z,65.40
2018-07-01T05:34:43.440Z,64.30
2018-07-01T05:37:11.882Z,62.20
2018-07-01T05:39:40.302Z,60.60
2018-07-01T05:42:08.709Z,60.00
2018-07-01T05:44:37.092Z,59.30
2018-07-01T05:47:05.481Z,58.20
2018-07-01T05:49:33.929Z,57.60
2018-07-01T05:52:02.355Z,57.20
2018-07-01T05:54:30.823Z,58.30
2018-07-01T05:56:59.324Z,57.40
2018-07-01T05:59:27.852Z,56.60
2018-07-01T06:01:56.636Z,57.90
2018-07-01T06:04:25.025Z,56.40
2018-07-01T06:06:53.521Z,55.00
2018-07-01T06:09:21.940Z,56.20
2018-07-01T06:11:50.343Z,57.10
2018-07-01T06:14:18.826Z,55.30
2018-07-01T06:16:47.333Z,56.20
2018-07-01T06:19:15.830Z,57.20
2018-07-01T06:21:44.326Z,56.30
2018-07-01T06:24:12.924Z,55.60
2018-07-01T06:26:41.420Z,56.10
2018-07-01T06:29:09.886Z,56.20
2018-07-01T06:31:38.323Z,56.30
2018-07-01T06:34:06.823Z,54.90
2018-07-01T06:36:35.384Z,56.40
2018-07-01T06:39:04.805Z,56.20
2018-07-01T06:41:33.237Z,55.40
2018-07-01T06:44:01.701Z,55.50
2018-07-01T06:46:30.097Z,55.50
2018-07-01T06:48:58.488Z,55.30
2018-07-01T06:51:27.025Z,56.00
2018-07-01T06:53:55.416Z,54.60
2018-07-01T06:56:23.883Z,55.70
2018-07-01T06:58:52.544Z,58.30
2018-07-01T07:01:20.936Z,54.80
2018-07-01T07:03:49.350Z,54.10
2018-07-01T07:06:18.152Z,56.30
2018-07-01T07:08:46.765Z,54.60
2018-07-01T07:11:16.842Z,56.30
2018-07-01T07:13:45.270Z,58.00
2018-07-01T07:16:13.715Z,58.60
2018-07-01T07:18:42.300Z,59.80
2018-07-01T07:21:10.824Z,60.80
2018-07-01T07:23:39.369Z,60.10
2018-07-01T07:26:07.768Z,59.50
2018-07-01T07:28:36.274Z,61.40
2018-07-01T07:31:04.716Z,60.20
2018-07-01T07:33:33.179Z,61.00
2018-07-01T07:36:01.598Z,61.90
2018-07-01T07:38:30.022Z,61.80
2018-07-01T07:40:58.448Z,62.20
2018-07-01T07:43:26.853Z,61.60
2018-07-01T07:45:55.353Z,60.50
2018-07-01T07:48:23.808Z,60.10
2018-07-01T07:53:20.434Z,62.40
2018-07-01T07:55:48.850Z,59.90
2018-07-01T08:00:45.404Z,60.00
2018-07-01T08:03:13.821Z,60.80
2018-07-01T08:05:42.291Z,60.80
2018-07-01T08:08:10.697Z,60.90
2018-07-01T08:10:39.231Z,61.60
2018-07-01T08:13:07.796Z,59.90
2018-07-01T08:15:36.119Z,61.80
2018-07-01T08:18:04.576Z,61.20
2018-07-01T08:20:33.041Z,59.70
2018-07-01T08:23:01.561Z,60.00
2018-07-01T08:25:29.993Z,59.10
2018-07-01T08:27:58.398Z,57.70
2018-07-01T08:30:27.016Z,58.50
2018-07-01T08:32:55.490Z,57.90
2018-07-01T08:35:23.949Z,59.10
2018-07-01T08:37:52.487Z,58.10
2018-07-01T08:40:21.018Z,57.10
2018-07-01T08:42:49.306Z,58.20
2018-07-01T08:45:17.708Z,58.90
2018-07-01T08:47:47.120Z,58.50
2018-07-01T08:50:17.297Z,59.90
2018-07-01T08:52:45.853Z,57.50
2018-07-01T08:55:14.232Z,58.70
2018-07-01T08:57:42.648Z,59.30
2018-07-01T09:00:11.101Z,57.50
2018-07-01T09:02:39.545Z,56.30
2018-07-01T09:05:07.993Z,57.30
2018-07-01T09:07:36.409Z,57.70
2018-07-01T09:10:05.617Z,57.40
2018-07-01T09:12:34.101Z,59.10
2018-07-01T09:15:02.537Z,57.50
2018-07-01T09:17:31.019Z,58.30
2018-07-01T09:19:59.457Z,56.90
2018-07-01T09:22:28.157Z,55.90
2018-07-01T09:24:56.792Z,57.10
2018-07-01T09:27:25.257Z,57.00
2018-07-01T09:30:00.205Z,55.80
2018-07-01T09:32:28.792Z,56.00
2018-07-01T09:34:57.381Z,56.90
2018-07-01T09:37:25.909Z,56.00
2018-07-01T09:39:54.442Z,56.40
2018-07-01T09:42:22.829Z,54.90
2018-07-01T09:44:51.429Z,54.50
2018-07-01T09:47:19.865Z,56.30
2018-07-01T09:49:48.244Z,55.90
2018-07-01T09:52:16.661Z,55.60
2018-07-01T09:54:45.053Z,54.70
2018-07-01T09:57:13.584Z,55.40
2018-07-01T09:59:42.000Z,54.80
2018-07-01T10:02:10.456Z,55.20
2018-07-01T10:04:38.918Z,56.20
2018-07-01T10:07:07.412Z,54.80
2018-07-01T10:09:36.052Z,54.30
2018-07-01T10:12:04.534Z,55.80
2018-07-01T10:14:32.985Z,55.40
2018-07-01T10:17:01.690Z,57.30
2018-07-01T10:19:30.102Z,56.20
2018-07-01T10:21:58.516Z,57.40
2018-07-01T10:24:26.939Z,55.60
2018-07-01T10:26:55.348Z,54.80
2018-07-01T10:29:23.816Z,53.80
2018-07-01T10:31:52.198Z,53.90
2018-07-01T10:34:20.613Z,54.40
2018-07-01T10:36:49.050Z,54.00
2018-07-01T10:39:18.257Z,55.50
2018-07-01T10:41:46.776Z,54.00
2018-07-01T10:44:15.186Z,55.90
2018-07-01T10:46:43.628Z,54.50
2018-07-01T10:49:12.151Z,53.50
2018-07-01T10:51:40.777Z,55.00
2018-07-01T10:54:09.175Z,55.10
2018-07-01T10:56:37.593Z,53.90
2018-07-01T10:59:06.013Z,54.40
2018-07-01T11:01:34.458Z,55.10
2018-07-01T11:04:02.911Z,52.90
2018-07-01T11:06:32.341Z,52.30
2018-07-01T11:09:00.785Z,53.60
2018-07-01T11:11:29.200Z,54.30
2018-07-01T11:13:57.770Z,53.20
2018-07-01T11:16:26.216Z,52.10
2018-07-01T11:18:54.628Z,55.00
2018-07-01T11:21:23.045Z,53.90
2018-07-01T11:23:51.557Z,52.30
2018-07-01T11:26:20.033Z,54.90
2018-07-01T11:28:48.476Z,55.00
2018-07-01T11:31:16.934Z,53.00
2018-07-01T11:33:45.379Z,51.60
2018-07-01T11:36:13.917Z,51.60
2018-07-01T11:38:42.322Z,51.30
2018-07-01T11:41:10.733Z,51.20
2018-07-01T11:43:39.261Z,52.40
2018-07-01T11:46:07.648Z,51.10
2018-07-01T11:48:36.120Z,51.10
2018-07-01T11:51:04.645Z,51.10
2018-07-01T11:53:33.083Z,51.80
2018-07-01T11:56:01.517Z,50.70
2018-07-01T11:58:29.943Z,50.30
2018-07-01T12:00:58.504Z,51.50
2018-07-01T12:03:26.987Z,51.20
2018-07-01T12:05:55.408Z,51.40
2018-07-01T12:08:23.909Z,53.20
2018-07-01T12:10:52.320Z,51.60
2018-07-01T12:13:20.760Z,51.40
2018-07-01T12:15:49.169Z,50.10
2018-07-01T12:18:17.625Z,51.00
2018-07-01T12:20:46.085Z,51.60
2018-07-01T12:23:14.511Z,50.10
2018-07-01T12:25:43.014Z,49.30
2018-07-01T12:28:11.492Z,50.20
2018-07-01T12:30:39.899Z,50.10
2018-07-01T12:33:08.366Z,50.20
2018-07-01T12:35:36.857Z,49.50
2018-07-01T12:38:05.606Z,50.00
2018-07-01T12:40:34.200Z,49.80
2018-07-01T12:43:02.663Z,49.60
2018-07-01T12:45:31.140Z,49.30
2018-07-01T12:47:59.559Z,49.90
2018-07-01T12:50:27.947Z,49.70
2018-07-01T12:52:56.441Z,52.50
2018-07-01T12:55:24.889Z,50.60
2018-07-01T12:57:53.324Z,52.90
2018-07-01T13:02:50.037Z,50.60
2018-07-01T13:05:18.485Z,50.40
2018-07-01T13:07:46.972Z,52.40
2018-07-01T13:10:15.705Z,51.20
2018-07-01T13:12:44.158Z,50.20
2018-07-01T13:15:12.561Z,50.60
2018-07-01T13:17:41.038Z,49.10
2018-07-01T13:20:09.524Z,50.10
2018-07-01T13:22:37.967Z,49.60
2018-07-01T13:25:06.821Z,50.00
2018-07-01T13:27:35.290Z,49.90
2018-07-01T13:30:03.801Z,47.90
2018-07-01T13:32:32.222Z,49.60
2018-07-01T13:35:01.313Z,48.60
2018-07-01T13:37:29.789Z,47.30
2018-07-01T13:39:58.222Z,46.60
2018-07-01T13:42:26.697Z,48.30
2018-07-01T13:44:55.116Z,46.90
2018-07-01T13:47:23.559Z,48.40
2018-07-01T13:49:52.036Z,48.30
2018-07-01T13:52:20.422Z,48.50
2018-07-01T13:54:49.997Z,47.00
2018-07-01T13:57:18.546Z,46.70
2018-07-01T13:59:47.186Z,46.80
2018-07-01T14:02:15.665Z,47.70
2018-07-01T14:04:44.120Z,48.10
2018-07-01T14:07:12.679Z,47.10
2018-07-01T14:09:41.259Z,48.00
2018-07-01T14:12:09.755Z,46.70
2018-07-01T14:14:38.371Z,47.30
2018-07-01T14:17:06.864Z,47.80
2018-07-01T14:19:35.276Z,48.10
2018-07-01T14:22:03.696Z,48.70
2018-07-01T14:24:32.157Z,48.90
2018-07-01T14:27:00.968Z,48.20
2018-07-01T14:29:29.369Z,48.60
2018-07-01T14:31:57.827Z,49.40
2018-07-01T14:34:26.311Z,48.60
2018-07-01T14:36:55.404Z,49.00
2018-07-01T14:39:23.910Z,49.10
2018-07-01T14:41:52.445Z,49.50
2018-07-01T14:44:20.999Z,48.80
2018-07-01T14:46:49.480Z,50.10
2018-07-01T14:49:17.941Z,48.80
2018-07-01T14:51:47.156Z,48.20
2018-07-01T14:54:15.585Z,47.20
2018-07-01T14:56:44.081Z,46.70
2018-07-01T14:59:12.654Z,47.00
2018-07-01T15:01:41.074Z,47.50
2018-07-01T15:04:09.464Z,46.80
2018-07-01T15:06:37.976Z,48.30
2018-07-01T15:09:09.240Z,47.80
2018-07-01T15:11:37.705Z,46.80
2018-07-01T15:14:06.169Z,47.70
2018-07-01T15:16:34.582Z,47.90
2018-07-01T15:19:02.996Z,47.10
2018-07-01T15:21:31.792Z,46.50
2018-07-01T15:24:00.209Z,46.20
2018-07-01T15:26:28.717Z,46.00
2018-07-01T15:28:57.195Z,47.20
2018-07-01T15:31:25.727Z,49.40
2018-07-01T15:33:54.192Z,47.60
2018-07-01T15:36:22.960Z,47.10
2018-07-01T15:38:51.782Z,47.90
2018-07-01T15:41:20.249Z,49.10
2018-07-01T15:43:48.708Z,47.10
2018-07-01T15:46:17.209Z,47.40
2018-07-01T15:48:45.769Z,47.30
2018-07-01T15:51:14.193Z,46.40
2018-07-01T15:56:10.785Z,45.10
2018-07-01T15:58:39.344Z,45.80
2018-07-01T16:01:07.792Z,46.40
2018-07-01T16:03:36.324Z,47.70
2018-07-01T16:06:04.863Z,47.00
2018-07-01T16:08:33.312Z,46.70
2018-07-01T16:11:01.858Z,47.00
2018-07-01T16:13:30.316Z,47.10
2018-07-01T16:15:58.749Z,47.80
2018-07-01T16:18:27.201Z,48.50
2018-07-01T16:20:55.740Z,47.40
2018-07-01T16:23:24.180Z,48.60
2018-07-01T16:25:57.893Z,49.30
2018-07-01T16:31:00.106Z,48.20
2018-07-01T16:33:28.513Z,47.60
2018-07-01T16:35:57.033Z,46.40
2018-07-01T16:38:25.441Z,48.50
2018-07-01T16:40:53.878Z,47.60
2018-07-01T16:45:50.730Z,47.00
2018-07-01T16:48:19.339Z,47.50
2018-07-01T16:50:47.762Z,46.60
2018-07-01T16:53:16.224Z,46.40
2018-07-01T16:55:44.857Z,46.20
2018-07-01T16:58:13.616Z,45.90
2018-07-01T17:00:42.103Z,51.00
2018-07-01T17:03:10.574Z,50.30
2018-07-01T17:05:39.055Z,48.60
2018-07-01T17:08:07.532Z,47.90
2018-07-01T17:10:35.955Z,50.50
2018-07-01T17:13:04.668Z,53.50
2018-07-01T17:15:33.068Z,48.30
2018-07-01T17:18:01.672Z,49.60
2018-07-01T17:20:30.142Z,49.10
2018-07-01T17:22:58.592Z,47.40
2018-07-01T17:25:27.042Z,47.90
2018-07-01T17:30:23.525Z,48.40
2018-07-01T17:32:57.369Z,48.10
2018-07-01T17:35:26.010Z,46.90
2018-07-01T17:37:54.612Z,48.80
2018-07-01T17:40:23.026Z,45.30
2018-07-01T17:42:51.444Z,46.40
2018-07-01T17:45:19.889Z,46.80
2018-07-01T17:47:48.336Z,51.70
2018-07-01T17:50:16.872Z,46.80
2018-07-01T17:52:45.316Z,50.60
2018-07-01T17:55:13.768Z,49.70
2018-07-01T17:57:42.229Z,48.30
2018-07-01T18:00:10.879Z,50.50
2018-07-01T18:02:39.372Z,49.10
2018-07-01T18:05:08.621Z,47.90
2018-07-01T18:07:37.208Z,47.60
2018-07-01T18:10:05.890Z,51.80
2018-07-01T18:12:34.490Z,48.50
2018-07-01T18:15:03.163Z,48.30
2018-07-01T18:17:31.743Z,50.20
2018-07-01T18:20:00.316Z,47.50
2018-07-01T18:23:00.812Z,47.50
2018-07-01T18:25:04.500Z,48.70
2018-07-01T18:27:25.949Z,48.00
2018-07-01T18:29:54.316Z,50.90
2018-07-01T18:32:22.784Z,49.10
2018-07-01T18:34:51.317Z,49.90
2018-07-01T18:37:19.960Z,49.10
2018-07-01T18:39:48.445Z,50.60
2018-07-01T18:42:16.905Z,50.90
2018-07-01T18:44:45.360Z,52.60
2018-07-01T18:47:13.986Z,50.90
2018-07-01T18:49:42.613Z,49.80
2018-07-01T18:52:11.272Z,50.40
2018-07-01T18:57:09.504Z,50.00
2018-07-01T18:59:38.260Z,50.50
2018-07-01T19:02:06.849Z,51.30
2018-07-01T19:04:35.443Z,51.60
2018-07-01T19:07:03.963Z,53.10
2018-07-01T19:09:32.846Z,55.00
2018-07-01T19:12:02.747Z,52.40
2018-07-01T19:14:31.484Z,51.90
2018-07-01T19:17:00.424Z,52.10
2018-07-01T19:19:28.933Z,51.80
2018-07-01T19:21:57.333Z,52.40
2018-07-01T19:24:25.843Z,52.70
2018-07-01T19:26:54.353Z,52.50
2018-07-01T19:29:22.852Z,52.70
2018-07-01T19:31:51.304Z,54.40
2018-07-01T19:34:19.861Z,53.60
2018-07-01T19:36:48.577Z,56.00
2018-07-01T19:39:17.086Z,53.90
2018-07-01T19:41:45.811Z,54.30
2018-07-01T19:44:14.402Z,54.70
2018-07-01T19:46:42.817Z,55.80
2018-07-01T19:49:11.259Z,54.40
2018-07-01T19:51:39.882Z,54.70
2018-07-01T19:54:08.345Z,55.70
2018-07-01T19:56:36.784Z,55.10
2018-07-01T19:59:05.199Z,55.70
2018-07-01T20:01:33.673Z,54.40
2018-07-01T20:04:02.093Z,55.60
2018-07-01T20:06:30.557Z,56.10
2018-07-01T20:08:59.173Z,54.80
2018-07-01T20:11:27.782Z,55.70
2018-07-01T20:13:56.184Z,55.20
2018-07-01T20:16:24.569Z,55.20
2018-07-01T20:18:52.991Z,55.80
2018-07-01T20:21:21.380Z,56.30
2018-07-01T20:23:49.831Z,56.30
2018-07-01T20:26:18.281Z,55.70
2018-07-01T20:31:15.039Z,55.20
2018-07-01T20:33:43.667Z,56.30
2018-07-01T20:36:12.286Z,57.70
2018-07-01T20:38:40.732Z,55.60
2018-07-01T20:41:09.828Z,55.30
2018-07-01T20:43:38.871Z,55.20
2018-07-01T20:46:08.164Z,56.60
2018-07-01T20:48:36.693Z,55.60
2018-07-01T20:51:05.478Z,56.30
2018-07-01T20:53:33.820Z,56.50
2018-07-01T20:56:02.233Z,55.90
2018-07-01T20:58:30.686Z,56.60
2018-07-01T21:00:59.130Z,56.70
2018-07-01T21:03:27.545Z,57.00
2018-07-01T21:05:55.944Z,55.60
2018-07-01T21:08:24.433Z,56.20
2018-07-01T21:10:52.820Z,56.60
2018-07-01T21:13:21.248Z,56.80
2018-07-01T21:15:49.633Z,57.00
2018-07-01T21:18:18.050Z,57.90
2018-07-01T21:20:46.567Z,58.50
2018-07-01T21:23:15.043Z,57.60
2018-07-01T21:25:43.598Z,57.60
2018-07-01T21:28:12.010Z,58.10
2018-07-01T21:30:40.505Z,58.10
2018-07-01T21:33:08.985Z,57.80
2018-07-01T21:35:37.424Z,58.90
2018-07-01T21:38:05.832Z,59.70
2018-07-01T21:40:34.419Z,58.70
2018-07-01T21:43:02.788Z,58.90
2018-07-01T21:45:31.199Z,58.30
2018-07-01T21:47:59.645Z,57.60
2018-07-01T21:50:28.171Z,57.90
2018-07-01T21:52:56.617Z,59.80
2018-07-01T21:55:25.065Z,58.00
2018-07-01T21:57:53.560Z,58.90
2018-07-01T22:00:27.530Z,58.50
2018-07-01T22:02:55.965Z,58.10
2018-07-01T22:05:24.484Z,57.60
2018-07-01T22:07:52.993Z,57.50
2018-07-01T22:10:32.680Z,58.20
2018-07-01T22:13:01.177Z,58.40
2018-07-01T22:15:40.699Z,58.80
2018-07-01T22:18:09.124Z,58.00
2018-07-01T22:20:37.548Z,57.80
2018-07-01T22:23:05.973Z,58.10
2018-07-01T22:25:34.360Z,57.60
2018-07-01T22:28:02.765Z,57.80
2018-07-01T22:30:31.171Z,58.40
2018-07-01T22:32:59.697Z,58.50
2018-07-01T22:35:28.140Z,58.10
2018-07-01T22:37:56.734Z,59.20
2018-07-01T22:40:25.210Z,58.50
2018-07-01T22:42:53.644Z,59.80
2018-07-01T22:45:22.060Z,58.30
2018-07-01T22:47:50.726Z,59.60
2018-07-01T22:50:19.172Z,59.20
2018-07-01T22:52:47.626Z,61.60
2018-07-01T22:55:16.045Z,59.00
2018-07-01T22:57:44.454Z,58.90
2018-07-01T23:00:12.956Z,59.50
2018-07-01T23:02:54.978Z,59.10
2018-07-01T23:05:23.741Z,59.50
2018-07-01T23:07:52.540Z,59.30
2018-07-01T23:10:26.147Z,59.10
2018-07-01T23:12:55.319Z,59.50
2018-07-01T23:15:23.781Z,59.70
2018-07-01T23:17:52.391Z,60.00
2018-07-01T23:20:20.904Z,60.30
2018-07-01T23:22:49.328Z,60.70
2018-07-01T23:25:17.755Z,61.40
2018-07-01T23:27:46.685Z,60.00
2018-07-01T23:30:15.132Z,60.40
2018-07-01T23:32:44.110Z,61.00
2018-07-01T23:35:12.643Z,60.80
2018-07-01T23:37:41.380Z,62.50
2018-07-01T23:40:10.789Z,61.00
2018-07-01T23:42:39.868Z,61.00
2018-07-01T23:45:10.206Z,61.60
2018-07-01T23:47:38.616Z,62.20
2018-07-01T23:50:07.612Z,62.80
2018-07-01T23:52:36.708Z,62.50
2018-07-01T23:55:05.489Z,62.70
2018-07-01T23:57:33.929Z,62.00
